sensor_id;sensor_type;location;lat;lon;timestamp;temperature;humidity
19389;DHT22;9830;41.876;23.474;2022-07-29T00:02:14;15.90;99.90
19389;DHT22;9830;41.876;23.474;2022-07-29T00:04:40;15.90;99.90
19389;DHT22;9830;41.876;23.474;2022-07-29T00:07:05;15.80;99.90
19389;DHT22;9830;41.876;23.474;2022-07-29T00:09:32;15.80;99.90
19389;DHT22;9830;41.876;23.474;2022-07-29T00:11:59;15.80;99.90
19389;DHT22;9830;41.876;23.474;2022-07-29T00:14:25;15.80;99.90
19389;DHT22;9830;41.876;23.474;2022-07-29T00:16:51;15.80;99.90
19389;DHT22;9830;41.876;23.474;2022-07-29T00:19:17;15.80;99.90
19389;DHT22;9830;41.876;23.474;2022-07-29T00:21:43;15.80;99.90
19389;DHT22;9830;41.876;23.474;2022-07-29T00:24:09;15.80;99.90
19389;DHT22;9830;41.876;23.474;2022-07-29T00:26:34;15.60;99.90
19389;DHT22;9830;41.876;23.474;2022-07-29T00:29:01;15.60;99.90
19389;DHT22;9830;41.876;23.474;2022-07-29T00:31:27;15.60;99.90
19389;DHT22;9830;41.876;23.474;2022-07-29T00:33:53;15.60;99.90
19389;DHT22;9830;41.876;23.474;2022-07-29T00:36:19;15.60;99.90
19389;DHT22;9830;41.876;23.474;2022-07-29T00:38:47;15.50;99.90
19389;DHT22;9830;41.876;23.474;2022-07-29T00:41:13;15.50;99.90
19389;DHT22;9830;41.876;23.474;2022-07-29T00:43:39;15.50;99.90
19389;DHT22;9830;41.876;23.474;2022-07-29T00:46:04;15.30;99.90
19389;DHT22;9830;41.876;23.474;2022-07-29T00:48:30;15.20;99.90
19389;DHT22;9830;41.876;23.474;2022-07-29T00:50:57;15.10;99.90
19389;DHT22;9830;41.876;23.474;2022-07-29T00:53:24;15.10;99.90
19389;DHT22;9830;41.876;23.474;2022-07-29T00:55:50;15.10;99.90
19389;DHT22;9830;41.876;23.474;2022-07-29T00:58:16;15.20;99.90
19389;DHT22;9830;41.876;23.474;2022-07-29T01:00:43;15.20;99.90
19389;DHT22;9830;41.876;23.474;2022-07-29T01:03:08;15.10;99.90
19389;DHT22;9830;41.876;23.474;2022-07-29T01:05:35;15.10;99.90
19389;DHT22;9830;41.876;23.474;2022-07-29T01:08:01;15.10;99.90
19389;DHT22;9830;41.876;23.474;2022-07-29T01:10:28;15.00;99.90
19389;DHT22;9830;41.876;23.474;2022-07-29T01:12:57;15.00;99.90
19389;DHT22;9830;41.876;23.474;2022-07-29T01:15:24;14.90;99.90
19389;DHT22;9830;41.876;23.474;2022-07-29T01:18:01;14.90;99.90
19389;DHT22;9830;41.876;23.474;2022-07-29T01:26:23;14.90;99.90
19389;DHT22;9830;41.876;23.474;2022-07-29T01:29:12;15.00;99.90
19389;DHT22;9830;41.876;23.474;2022-07-29T01:34:11;14.80;99.90
19389;DHT22;9830;41.876;23.474;2022-07-29T01:36:54;14.70;99.90
19389;DHT22;9830;41.876;23.474;2022-07-29T01:39:33;14.60;99.90
19389;DHT22;9830;41.876;23.474;2022-07-29T01:45:02;14.50;99.90
19389;DHT22;9830;41.876;23.474;2022-07-29T01:50:16;14.40;99.90
19389;DHT22;9830;41.876;23.474;2022-07-29T01:53:06;14.50;99.90
19389;DHT22;9830;41.876;23.474;2022-07-29T01:55:36;14.50;99.90
19389;DHT22;9830;41.876;23.474;2022-07-29T01:58:05;14.50;99.90
19389;DHT22;9830;41.876;23.474;2022-07-29T02:00:32;14.50;99.90
19389;DHT22;9830;41.876;23.474;2022-07-29T02:03:01;14.50;99.90
19389;DHT22;9830;41.876;23.474;2022-07-29T02:05:28;14.50;99.90
19389;DHT22;9830;41.876;23.474;2022-07-29T02:07:58;14.50;99.90
19389;DHT22;9830;41.876;23.474;2022-07-29T02:10:27;14.40;99.90
19389;DHT22;9830;41.876;23.474;2022-07-29T02:12:54;14.20;99.90
19389;DHT22;9830;41.876;23.474;2022-07-29T02:15:23;14.20;99.90
19389;DHT22;9830;41.876;23.474;2022-07-29T02:17:55;14.20;99.90
19389;DHT22;9830;41.876;23.474;2022-07-29T02:20:22;14.20;99.90
19389;DHT22;9830;41.876;23.474;2022-07-29T02:22:52;14.20;99.90
19389;DHT22;9830;41.876;23.474;2022-07-29T02:25:19;14.10;99.90
19389;DHT22;9830;41.876;23.474;2022-07-29T02:27:47;14.10;99.90
19389;DHT22;9830;41.876;23.474;2022-07-29T02:30:14;14.20;99.90
19389;DHT22;9830;41.876;23.474;2022-07-29T02:32:41;14.20;99.90
19389;DHT22;9830;41.876;23.474;2022-07-29T02:35:09;14.20;99.90
19389;DHT22;9830;41.876;23.474;2022-07-29T02:37:36;14.20;99.90
19389;DHT22;9830;41.876;23.474;2022-07-29T02:40:03;14.10;99.90
19389;DHT22;9830;41.876;23.474;2022-07-29T02:42:30;14.00;99.90
19389;DHT22;9830;41.876;23.474;2022-07-29T02:44:56;14.00;99.90
19389;DHT22;9830;41.876;23.474;2022-07-29T02:47:30;13.90;99.90
19389;DHT22;9830;41.876;23.474;2022-07-29T02:50:08;13.90;99.90
19389;DHT22;9830;41.876;23.474;2022-07-29T02:52:47;13.90;99.90
19389;DHT22;9830;41.876;23.474;2022-07-29T02:55:26;13.90;99.90
19389;DHT22;9830;41.876;23.474;2022-07-29T03:00:59;13.90;99.90
19389;DHT22;9830;41.876;23.474;2022-07-29T03:03:31;13.70;99.90
19389;DHT22;9830;41.876;23.474;2022-07-29T03:06:00;13.60;99.90
19389;DHT22;9830;41.876;23.474;2022-07-29T03:08:27;13.50;99.90
19389;DHT22;9830;41.876;23.474;2022-07-29T03:10:53;13.60;99.90
19389;DHT22;9830;41.876;23.474;2022-07-29T03:13:20;13.70;99.90
19389;DHT22;9830;41.876;23.474;2022-07-29T03:15:47;13.80;99.90
19389;DHT22;9830;41.876;23.474;2022-07-29T03:18:13;13.90;99.90
19389;DHT22;9830;41.876;23.474;2022-07-29T03:20:39;13.80;99.90
19389;DHT22;9830;41.876;23.474;2022-07-29T03:23:06;13.80;99.90
19389;DHT22;9830;41.876;23.474;2022-07-29T03:25:33;13.90;99.90
19389;DHT22;9830;41.876;23.474;2022-07-29T03:27:59;13.90;99.90
19389;DHT22;9830;41.876;23.474;2022-07-29T03:30:24;13.80;99.90
19389;DHT22;9830;41.876;23.474;2022-07-29T03:32:52;13.80;99.90
19389;DHT22;9830;41.876;23.474;2022-07-29T03:35:18;13.90;99.90
19389;DHT22;9830;41.876;23.474;2022-07-29T03:37:45;13.90;99.90
19389;DHT22;9830;41.876;23.474;2022-07-29T03:40:15;13.80;99.90
19389;DHT22;9830;41.876;23.474;2022-07-29T03:42:43;13.70;99.90
19389;DHT22;9830;41.876;23.474;2022-07-29T03:45:13;13.80;99.90
19389;DHT22;9830;41.876;23.474;2022-07-29T03:47:53;13.80;99.90
19389;DHT22;9830;41.876;23.474;2022-07-29T03:50:21;13.90;99.90
19389;DHT22;9830;41.876;23.474;2022-07-29T03:52:48;14.00;99.90
19389;DHT22;9830;41.876;23.474;2022-07-29T03:55:14;14.20;99.90
19389;DHT22;9830;41.876;23.474;2022-07-29T03:57:41;14.30;99.90
19389;DHT22;9830;41.876;23.474;2022-07-29T04:00:08;14.40;99.90
19389;DHT22;9830;41.876;23.474;2022-07-29T04:02:36;14.60;99.90
19389;DHT22;9830;41.876;23.474;2022-07-29T04:05:01;14.80;99.90
19389;DHT22;9830;41.876;23.474;2022-07-29T04:07:27;15.30;99.90
19389;DHT22;9830;41.876;23.474;2022-07-29T04:09:53;15.90;99.90
19389;DHT22;9830;41.876;23.474;2022-07-29T04:12:19;16.80;99.90
19389;DHT22;9830;41.876;23.474;2022-07-29T04:14:46;17.20;99.90
19389;DHT22;9830;41.876;23.474;2022-07-29T04:17:12;17.50;99.90
19389;DHT22;9830;41.876;23.474;2022-07-29T04:19:38;17.80;99.90
19389;DHT22;9830;41.876;23.474;2022-07-29T04:22:03;17.90;99.90
19389;DHT22;9830;41.876;23.474;2022-07-29T04:24:29;18.10;99.90
19389;DHT22;9830;41.876;23.474;2022-07-29T04:26:55;18.90;99.90
19389;DHT22;9830;41.876;23.474;2022-07-29T04:29:21;19.10;99.90
19389;DHT22;9830;41.876;23.474;2022-07-29T04:31:47;20.10;99.90
19389;DHT22;9830;41.876;23.474;2022-07-29T04:34:13;20.50;98.20
19389;DHT22;9830;41.876;23.474;2022-07-29T04:36:38;21.50;95.40
19389;DHT22;9830;41.876;23.474;2022-07-29T04:39:04;22.90;92.00
19389;DHT22;9830;41.876;23.474;2022-07-29T04:41:30;23.10;90.00
19389;DHT22;9830;41.876;23.474;2022-07-29T04:43:56;23.70;86.00
19389;DHT22;9830;41.876;23.474;2022-07-29T04:46:22;22.80;88.70
19389;DHT22;9830;41.876;23.474;2022-07-29T04:48:48;22.50;90.30
19389;DHT22;9830;41.876;23.474;2022-07-29T04:51:16;22.10;92.80
19389;DHT22;9830;41.876;23.474;2022-07-29T04:53:42;21.00;94.70
19389;DHT22;9830;41.876;23.474;2022-07-29T04:56:08;21.20;95.50
19389;DHT22;9830;41.876;23.474;2022-07-29T04:58:34;21.00;95.90
19389;DHT22;9830;41.876;23.474;2022-07-29T05:01:00;20.50;97.50
19389;DHT22;9830;41.876;23.474;2022-07-29T05:03:26;20.30;99.00
19389;DHT22;9830;41.876;23.474;2022-07-29T05:05:52;20.30;98.90
19389;DHT22;9830;41.876;23.474;2022-07-29T05:08:17;19.90;99.90
19389;DHT22;9830;41.876;23.474;2022-07-29T05:10:43;19.40;99.90
19389;DHT22;9830;41.876;23.474;2022-07-29T05:13:09;18.90;99.90
19389;DHT22;9830;41.876;23.474;2022-07-29T05:15:35;18.60;99.90
19389;DHT22;9830;41.876;23.474;2022-07-29T05:18:01;18.40;99.90
19389;DHT22;9830;41.876;23.474;2022-07-29T05:20:28;18.60;99.90
19389;DHT22;9830;41.876;23.474;2022-07-29T05:22:58;18.90;99.90
19389;DHT22;9830;41.876;23.474;2022-07-29T05:25:25;19.20;99.90
19389;DHT22;9830;41.876;23.474;2022-07-29T05:27:52;19.60;99.90
19389;DHT22;9830;41.876;23.474;2022-07-29T05:30:19;20.10;99.90
19389;DHT22;9830;41.876;23.474;2022-07-29T05:32:45;20.40;99.90
19389;DHT22;9830;41.876;23.474;2022-07-29T05:35:12;20.50;99.90
19389;DHT22;9830;41.876;23.474;2022-07-29T05:37:38;20.70;99.90
19389;DHT22;9830;41.876;23.474;2022-07-29T05:40:05;21.20;98.50
19389;DHT22;9830;41.876;23.474;2022-07-29T05:42:31;21.10;98.70
19389;DHT22;9830;41.876;23.474;2022-07-29T05:44:57;21.60;97.40
19389;DHT22;9830;41.876;23.474;2022-07-29T05:47:24;22.30;95.60
19389;DHT22;9830;41.876;23.474;2022-07-29T05:49:50;22.50;94.20
19389;DHT22;9830;41.876;23.474;2022-07-29T05:52:16;23.30;91.90
19389;DHT22;9830;41.876;23.474;2022-07-29T05:54:42;24.00;89.80
19389;DHT22;9830;41.876;23.474;2022-07-29T05:57:08;24.90;84.30
19389;DHT22;9830;41.876;23.474;2022-07-29T05:59:37;24.80;84.80
19389;DHT22;9830;41.876;23.474;2022-07-29T06:02:03;25.30;80.90
19389;DHT22;9830;41.876;23.474;2022-07-29T06:04:31;26.30;73.90
19389;DHT22;9830;41.876;23.474;2022-07-29T06:06:56;27.10;77.30
19389;DHT22;9830;41.876;23.474;2022-07-29T06:09:22;27.50;71.50
19389;DHT22;9830;41.876;23.474;2022-07-29T06:11:48;27.80;67.10
19389;DHT22;9830;41.876;23.474;2022-07-29T06:14:14;29.10;60.90
19389;DHT22;9830;41.876;23.474;2022-07-29T06:16:40;28.90;58.40
19389;DHT22;9830;41.876;23.474;2022-07-29T06:19:05;28.80;59.80
19389;DHT22;9830;41.876;23.474;2022-07-29T06:21:31;28.90;59.00
19389;DHT22;9830;41.876;23.474;2022-07-29T06:23:57;29.20;57.60
19389;DHT22;9830;41.876;23.474;2022-07-29T06:26:23;29.60;55.20
19389;DHT22;9830;41.876;23.474;2022-07-29T06:28:49;30.00;56.40
19389;DHT22;9830;41.876;23.474;2022-07-29T06:31:14;29.40;57.20
19389;DHT22;9830;41.876;23.474;2022-07-29T06:33:40;29.20;57.60
19389;DHT22;9830;41.876;23.474;2022-07-29T06:36:06;29.10;59.80
19389;DHT22;9830;41.876;23.474;2022-07-29T06:38:32;29.30;57.20
19389;DHT22;9830;41.876;23.474;2022-07-29T06:40:58;30.10;55.20
19389;DHT22;9830;41.876;23.474;2022-07-29T06:43:36;29.80;55.50
19389;DHT22;9830;41.876;23.474;2022-07-29T06:46:07;31.10;53.40
19389;DHT22;9830;41.876;23.474;2022-07-29T06:48:34;29.70;52.70
19389;DHT22;9830;41.876;23.474;2022-07-29T06:51:02;28.60;54.20
19389;DHT22;9830;41.876;23.474;2022-07-29T06:53:29;28.90;56.40
19389;DHT22;9830;41.876;23.474;2022-07-29T06:55:55;29.10;56.40
19389;DHT22;9830;41.876;23.474;2022-07-29T06:58:20;30.60;54.70
19389;DHT22;9830;41.876;23.474;2022-07-29T07:00:49;31.50;50.10
19389;DHT22;9830;41.876;23.474;2022-07-29T07:03:16;31.70;50.50
19389;DHT22;9830;41.876;23.474;2022-07-29T07:05:42;31.80;49.50
19389;DHT22;9830;41.876;23.474;2022-07-29T07:08:08;32.20;49.30
19389;DHT22;9830;41.876;23.474;2022-07-29T07:10:34;33.40;46.10
19389;DHT22;9830;41.876;23.474;2022-07-29T07:13:00;33.50;46.50
19389;DHT22;9830;41.876;23.474;2022-07-29T07:15:27;32.90;45.90
19389;DHT22;9830;41.876;23.474;2022-07-29T07:17:52;33.00;46.20
19389;DHT22;9830;41.876;23.474;2022-07-29T07:20:19;34.50;44.10
19389;DHT22;9830;41.876;23.474;2022-07-29T07:22:45;34.70;44.30
19389;DHT22;9830;41.876;23.474;2022-07-29T07:25:11;34.40;43.30
19389;DHT22;9830;41.876;23.474;2022-07-29T07:27:38;34.10;45.90
19389;DHT22;9830;41.876;23.474;2022-07-29T07:30:06;34.00;46.30
19389;DHT22;9830;41.876;23.474;2022-07-29T07:32:33;32.80;47.50
19389;DHT22;9830;41.876;23.474;2022-07-29T07:34:59;32.20;49.40
19389;DHT22;9830;41.876;23.474;2022-07-29T07:37:25;33.30;49.90
19389;DHT22;9830;41.876;23.474;2022-07-29T07:39:52;34.10;46.00
19389;DHT22;9830;41.876;23.474;2022-07-29T07:45:42;35.70;43.00
19389;DHT22;9830;41.876;23.474;2022-07-29T07:48:07;35.80;44.60
19389;DHT22;9830;41.876;23.474;2022-07-29T07:50:36;35.50;42.70
19389;DHT22;9830;41.876;23.474;2022-07-29T07:53:02;34.60;42.00
19389;DHT22;9830;41.876;23.474;2022-07-29T07:55:28;34.90;42.80
19389;DHT22;9830;41.876;23.474;2022-07-29T07:57:54;36.10;42.20
19389;DHT22;9830;41.876;23.474;2022-07-29T08:00:21;36.60;39.60
19389;DHT22;9830;41.876;23.474;2022-07-29T08:02:47;36.30;39.30
19389;DHT22;9830;41.876;23.474;2022-07-29T08:05:13;37.10;40.00
19389;DHT22;9830;41.876;23.474;2022-07-29T08:07:43;37.20;39.70
19389;DHT22;9830;41.876;23.474;2022-07-29T08:10:09;37.40;37.60
19389;DHT22;9830;41.876;23.474;2022-07-29T08:12:35;38.00;37.20
19389;DHT22;9830;41.876;23.474;2022-07-29T08:15:01;38.60;37.60
19389;DHT22;9830;41.876;23.474;2022-07-29T08:17:26;38.50;34.50
19389;DHT22;9830;41.876;23.474;2022-07-29T08:19:52;38.90;34.30
19389;DHT22;9830;41.876;23.474;2022-07-29T08:22:18;38.20;34.30
19389;DHT22;9830;41.876;23.474;2022-07-29T08:24:44;38.30;33.00
19389;DHT22;9830;41.876;23.474;2022-07-29T08:27:12;38.90;32.90
19389;DHT22;9830;41.876;23.474;2022-07-29T08:29:39;37.90;34.10
19389;DHT22;9830;41.876;23.474;2022-07-29T08:32:05;38.70;32.10
19389;DHT22;9830;41.876;23.474;2022-07-29T08:34:30;38.40;31.80
19389;DHT22;9830;41.876;23.474;2022-07-29T08:36:56;38.90;32.80
19389;DHT22;9830;41.876;23.474;2022-07-29T08:39:23;38.50;34.90
19389;DHT22;9830;41.876;23.474;2022-07-29T08:41:49;39.10;33.30
19389;DHT22;9830;41.876;23.474;2022-07-29T08:44:20;40.80;32.00
19389;DHT22;9830;41.876;23.474;2022-07-29T08:46:47;40.30;30.20
19389;DHT22;9830;41.876;23.474;2022-07-29T08:49:13;38.70;31.40
19389;DHT22;9830;41.876;23.474;2022-07-29T08:51:40;38.10;32.50
19389;DHT22;9830;41.876;23.474;2022-07-29T08:54:08;37.80;34.30
19389;DHT22;9830;41.876;23.474;2022-07-29T08:56:35;38.00;33.70
19389;DHT22;9830;41.876;23.474;2022-07-29T08:59:04;38.60;32.10
19389;DHT22;9830;41.876;23.474;2022-07-29T09:01:33;39.30;32.60
19389;DHT22;9830;41.876;23.474;2022-07-29T09:03:59;41.10;29.80
19389;DHT22;9830;41.876;23.474;2022-07-29T09:06:31;40.60;31.40
19389;DHT22;9830;41.876;23.474;2022-07-29T09:08:59;41.50;29.10
19389;DHT22;9830;41.876;23.474;2022-07-29T09:11:25;41.70;29.50
19389;DHT22;9830;41.876;23.474;2022-07-29T09:13:51;40.80;28.80
19389;DHT22;9830;41.876;23.474;2022-07-29T09:16:16;40.70;30.20
19389;DHT22;9830;41.876;23.474;2022-07-29T09:18:45;40.60;29.40
19389;DHT22;9830;41.876;23.474;2022-07-29T09:21:16;41.20;29.20
19389;DHT22;9830;41.876;23.474;2022-07-29T09:24:12;39.80;30.20
19389;DHT22;9830;41.876;23.474;2022-07-29T09:26:45;39.80;29.60
19389;DHT22;9830;41.876;23.474;2022-07-29T09:29:15;39.30;29.10
19389;DHT22;9830;41.876;23.474;2022-07-29T09:31:44;40.10;29.60
19389;DHT22;9830;41.876;23.474;2022-07-29T09:34:11;40.90;28.60
19389;DHT22;9830;41.876;23.474;2022-07-29T09:36:42;41.90;27.70
19389;DHT22;9830;41.876;23.474;2022-07-29T09:39:09;40.80;27.90
19389;DHT22;9830;41.876;23.474;2022-07-29T09:41:49;39.50;30.00
19389;DHT22;9830;41.876;23.474;2022-07-29T09:44:15;40.10;30.70
19389;DHT22;9830;41.876;23.474;2022-07-29T09:49:18;39.70;30.20
19389;DHT22;9830;41.876;23.474;2022-07-29T09:51:43;39.90;29.00
19389;DHT22;9830;41.876;23.474;2022-07-29T09:54:25;37.70;30.70
19389;DHT22;9830;41.876;23.474;2022-07-29T09:56:52;37.90;32.70
19389;DHT22;9830;41.876;23.474;2022-07-29T09:59:18;37.90;32.50
19389;DHT22;9830;41.876;23.474;2022-07-29T10:01:46;37.80;33.50
19389;DHT22;9830;41.876;23.474;2022-07-29T10:04:11;37.80;31.20
19389;DHT22;9830;41.876;23.474;2022-07-29T10:06:59;37.50;30.40
19389;DHT22;9830;41.876;23.474;2022-07-29T10:09:25;36.90;31.90
19389;DHT22;9830;41.876;23.474;2022-07-29T10:12:12;36.10;32.60
19389;DHT22;9830;41.876;23.474;2022-07-29T10:14:42;36.50;31.40
19389;DHT22;9830;41.876;23.474;2022-07-29T10:17:09;37.20;30.60
19389;DHT22;9830;41.876;23.474;2022-07-29T10:19:37;37.40;30.00
19389;DHT22;9830;41.876;23.474;2022-07-29T10:22:05;37.80;29.70
19389;DHT22;9830;41.876;23.474;2022-07-29T10:24:32;37.80;28.60
19389;DHT22;9830;41.876;23.474;2022-07-29T10:27:00;37.60;29.10
19389;DHT22;9830;41.876;23.474;2022-07-29T10:29:26;37.70;29.30
19389;DHT22;9830;41.876;23.474;2022-07-29T10:31:56;37.20;29.70
19389;DHT22;9830;41.876;23.474;2022-07-29T10:43:37;37.80;29.40
19389;DHT22;9830;41.876;23.474;2022-07-29T10:46:06;38.30;29.40
19389;DHT22;9830;41.876;23.474;2022-07-29T10:48:33;37.80;29.20
19389;DHT22;9830;41.876;23.474;2022-07-29T10:51:04;37.30;30.00
19389;DHT22;9830;41.876;23.474;2022-07-29T10:56:30;37.90;29.70
19389;DHT22;9830;41.876;23.474;2022-07-29T11:01:47;37.70;29.30
19389;DHT22;9830;41.876;23.474;2022-07-29T11:04:13;37.90;28.90
19389;DHT22;9830;41.876;23.474;2022-07-29T11:09:29;38.00;29.70
19389;DHT22;9830;41.876;23.474;2022-07-29T11:11:56;37.90;28.90
19389;DHT22;9830;41.876;23.474;2022-07-29T11:17:19;37.50;30.10
19389;DHT22;9830;41.876;23.474;2022-07-29T11:19:45;38.00;29.80
19389;DHT22;9830;41.876;23.474;2022-07-29T11:22:34;38.40;29.60
19389;DHT22;9830;41.876;23.474;2022-07-29T11:25:13;38.20;29.00
19389;DHT22;9830;41.876;23.474;2022-07-29T11:27:39;38.20;28.40
19389;DHT22;9830;41.876;23.474;2022-07-29T11:30:05;38.40;28.30
19389;DHT22;9830;41.876;23.474;2022-07-29T11:32:42;38.80;28.90
19389;DHT22;9830;41.876;23.474;2022-07-29T11:37:39;37.60;28.70
19389;DHT22;9830;41.876;23.474;2022-07-29T11:45:18;34.80;32.70
19389;DHT22;9830;41.876;23.474;2022-07-29T11:47:50;33.50;34.20
19389;DHT22;9830;41.876;23.474;2022-07-29T11:50:36;33.00;35.30
19389;DHT22;9830;41.876;23.474;2022-07-29T11:53:09;33.20;35.20
19389;DHT22;9830;41.876;23.474;2022-07-29T11:55:40;33.20;35.90
19389;DHT22;9830;41.876;23.474;2022-07-29T11:58:06;33.00;35.50
19389;DHT22;9830;41.876;23.474;2022-07-29T12:00:38;32.90;35.50
19389;DHT22;9830;41.876;23.474;2022-07-29T12:03:07;32.90;35.20
19389;DHT22;9830;41.876;23.474;2022-07-29T12:05:41;32.80;36.80
19389;DHT22;9830;41.876;23.474;2022-07-29T12:08:17;33.20;36.70
19389;DHT22;9830;41.876;23.474;2022-07-29T12:10:49;33.20;36.20
19389;DHT22;9830;41.876;23.474;2022-07-29T12:13:18;33.20;36.20
19389;DHT22;9830;41.876;23.474;2022-07-29T12:15:52;33.50;36.40
19389;DHT22;9830;41.876;23.474;2022-07-29T12:18:19;33.60;36.60
19389;DHT22;9830;41.876;23.474;2022-07-29T12:20:48;33.60;35.70
19389;DHT22;9830;41.876;23.474;2022-07-29T12:23:14;33.60;38.40
19389;DHT22;9830;41.876;23.474;2022-07-29T12:25:43;33.90;42.50
19389;DHT22;9830;41.876;23.474;2022-07-29T12:28:13;34.40;41.00
19389;DHT22;9830;41.876;23.474;2022-07-29T12:30:44;35.10;37.40
19389;DHT22;9830;41.876;23.474;2022-07-29T12:35:42;34.80;37.30
19389;DHT22;9830;41.876;23.474;2022-07-29T12:38:10;34.50;40.10
19389;DHT22;9830;41.876;23.474;2022-07-29T12:40:36;34.90;38.60
19389;DHT22;9830;41.876;23.474;2022-07-29T12:45:36;34.70;37.80
19389;DHT22;9830;41.876;23.474;2022-07-29T12:48:03;34.20;38.30
19389;DHT22;9830;41.876;23.474;2022-07-29T12:50:33;34.80;37.40
19389;DHT22;9830;41.876;23.474;2022-07-29T12:56:24;34.40;39.00
19389;DHT22;9830;41.876;23.474;2022-07-29T12:58:50;34.30;38.80
19389;DHT22;9830;41.876;23.474;2022-07-29T13:01:18;33.60;38.40
19389;DHT22;9830;41.876;23.474;2022-07-29T13:03:52;33.10;39.40
19389;DHT22;9830;41.876;23.474;2022-07-29T13:06:29;32.40;39.00
19389;DHT22;9830;41.876;23.474;2022-07-29T13:09:06;32.10;39.90
19389;DHT22;9830;41.876;23.474;2022-07-29T13:11:44;31.80;40.60
19389;DHT22;9830;41.876;23.474;2022-07-29T13:14:12;31.50;41.10
19389;DHT22;9830;41.876;23.474;2022-07-29T13:17:05;31.40;41.40
19389;DHT22;9830;41.876;23.474;2022-07-29T13:19:38;31.30;42.10
19389;DHT22;9830;41.876;23.474;2022-07-29T13:22:07;31.40;41.10
19389;DHT22;9830;41.876;23.474;2022-07-29T13:24:33;31.70;40.50
19389;DHT22;9830;41.876;23.474;2022-07-29T13:26:59;31.80;40.60
19389;DHT22;9830;41.876;23.474;2022-07-29T13:29:25;32.20;39.90
19389;DHT22;9830;41.876;23.474;2022-07-29T13:31:52;32.40;40.60
19389;DHT22;9830;41.876;23.474;2022-07-29T13:34:18;32.50;40.50
19389;DHT22;9830;41.876;23.474;2022-07-29T13:36:46;32.20;38.90
19389;DHT22;9830;41.876;23.474;2022-07-29T13:39:12;31.60;40.20
19389;DHT22;9830;41.876;23.474;2022-07-29T13:41:38;31.40;40.30
19389;DHT22;9830;41.876;23.474;2022-07-29T13:44:04;31.30;40.80
19389;DHT22;9830;41.876;23.474;2022-07-29T13:46:29;31.20;41.90
19389;DHT22;9830;41.876;23.474;2022-07-29T13:48:55;31.10;41.30
19389;DHT22;9830;41.876;23.474;2022-07-29T13:51:21;31.10;41.60
19389;DHT22;9830;41.876;23.474;2022-07-29T13:53:46;31.10;41.60
19389;DHT22;9830;41.876;23.474;2022-07-29T13:56:12;31.00;42.20
19389;DHT22;9830;41.876;23.474;2022-07-29T13:58:38;30.80;42.20
19389;DHT22;9830;41.876;23.474;2022-07-29T14:01:03;30.60;43.10
19389;DHT22;9830;41.876;23.474;2022-07-29T14:03:29;30.50;43.60
19389;DHT22;9830;41.876;23.474;2022-07-29T14:05:55;30.50;44.70
19389;DHT22;9830;41.876;23.474;2022-07-29T14:08:21;30.60;45.10
19389;DHT22;9830;41.876;23.474;2022-07-29T14:10:47;30.40;46.70
19389;DHT22;9830;41.876;23.474;2022-07-29T14:13:13;30.40;46.90
19389;DHT22;9830;41.876;23.474;2022-07-29T14:15:38;30.30;47.70
19389;DHT22;9830;41.876;23.474;2022-07-29T14:18:04;30.20;48.30
19389;DHT22;9830;41.876;23.474;2022-07-29T14:20:31;30.30;49.90
19389;DHT22;9830;41.876;23.474;2022-07-29T14:22:56;30.50;50.00
19389;DHT22;9830;41.876;23.474;2022-07-29T14:25:23;30.40;48.90
19389;DHT22;9830;41.876;23.474;2022-07-29T14:27:49;30.30;50.70
19389;DHT22;9830;41.876;23.474;2022-07-29T14:30:14;30.30;54.20
19389;DHT22;9830;41.876;23.474;2022-07-29T14:32:40;30.30;54.80
19389;DHT22;9830;41.876;23.474;2022-07-29T14:35:06;30.40;52.80
19389;DHT22;9830;41.876;23.474;2022-07-29T14:37:33;30.30;54.20
19389;DHT22;9830;41.876;23.474;2022-07-29T14:39:59;30.40;55.70
19389;DHT22;9830;41.876;23.474;2022-07-29T14:42:28;30.30;55.20
19389;DHT22;9830;41.876;23.474;2022-07-29T14:44:54;30.30;55.10
19389;DHT22;9830;41.876;23.474;2022-07-29T14:47:19;30.10;55.90
19389;DHT22;9830;41.876;23.474;2022-07-29T14:49:47;30.10;57.60
19389;DHT22;9830;41.876;23.474;2022-07-29T14:52:12;30.00;58.50
19389;DHT22;9830;41.876;23.474;2022-07-29T14:54:38;29.90;59.10
19389;DHT22;9830;41.876;23.474;2022-07-29T14:57:04;29.80;60.00
19389;DHT22;9830;41.876;23.474;2022-07-29T14:59:29;29.40;63.60
19389;DHT22;9830;41.876;23.474;2022-07-29T15:01:55;29.20;67.10
19389;DHT22;9830;41.876;23.474;2022-07-29T15:04:21;29.00;68.60
19389;DHT22;9830;41.876;23.474;2022-07-29T15:06:47;28.80;68.40
19389;DHT22;9830;41.876;23.474;2022-07-29T15:09:13;28.60;68.50
19389;DHT22;9830;41.876;23.474;2022-07-29T15:11:39;28.60;69.40
19389;DHT22;9830;41.876;23.474;2022-07-29T15:14:05;28.50;67.90
19389;DHT22;9830;41.876;23.474;2022-07-29T15:16:32;28.50;66.30
19389;DHT22;9830;41.876;23.474;2022-07-29T15:18:57;28.30;66.60
19389;DHT22;9830;41.876;23.474;2022-07-29T15:21:23;28.40;63.50
19389;DHT22;9830;41.876;23.474;2022-07-29T15:23:49;28.50;63.30
19389;DHT22;9830;41.876;23.474;2022-07-29T15:26:15;28.50;63.60
19389;DHT22;9830;41.876;23.474;2022-07-29T15:28:41;28.60;61.10
19389;DHT22;9830;41.876;23.474;2022-07-29T15:31:06;28.70;61.30
19389;DHT22;9830;41.876;23.474;2022-07-29T15:33:32;28.80;66.50
19389;DHT22;9830;41.876;23.474;2022-07-29T15:35:58;28.70;68.20
19389;DHT22;9830;41.876;23.474;2022-07-29T15:38:23;28.60;66.80
19389;DHT22;9830;41.876;23.474;2022-07-29T15:40:49;28.60;65.60
19389;DHT22;9830;41.876;23.474;2022-07-29T15:43:15;28.60;68.40
19389;DHT22;9830;41.876;23.474;2022-07-29T15:45:42;28.60;67.50
19389;DHT22;9830;41.876;23.474;2022-07-29T15:48:31;28.70;66.90
19389;DHT22;9830;41.876;23.474;2022-07-29T15:50:58;28.70;64.20
19389;DHT22;9830;41.876;23.474;2022-07-29T15:53:23;28.70;67.50
19389;DHT22;9830;41.876;23.474;2022-07-29T15:55:50;28.90;66.00
19389;DHT22;9830;41.876;23.474;2022-07-29T15:58:16;29.10;63.30
19389;DHT22;9830;41.876;23.474;2022-07-29T16:00:42;29.10;59.50
19389;DHT22;9830;41.876;23.474;2022-07-29T16:03:07;29.20;60.00
19389;DHT22;9830;41.876;23.474;2022-07-29T16:05:33;29.50;54.20
19389;DHT22;9830;41.876;23.474;2022-07-29T16:07:59;29.40;53.10
19389;DHT22;9830;41.876;23.474;2022-07-29T16:10:25;29.60;58.50
19389;DHT22;9830;41.876;23.474;2022-07-29T16:12:51;29.60;57.20
19389;DHT22;9830;41.876;23.474;2022-07-29T16:15:16;29.80;54.70
19389;DHT22;9830;41.876;23.474;2022-07-29T16:17:43;29.90;56.20
19389;DHT22;9830;41.876;23.474;2022-07-29T16:20:09;29.60;55.90
19389;DHT22;9830;41.876;23.474;2022-07-29T16:22:35;29.40;56.40
19389;DHT22;9830;41.876;23.474;2022-07-29T16:25:01;29.30;56.40
19389;DHT22;9830;41.876;23.474;2022-07-29T16:27:27;28.90;57.20
19389;DHT22;9830;41.876;23.474;2022-07-29T16:29:53;28.30;57.80
19389;DHT22;9830;41.876;23.474;2022-07-29T16:32:20;27.90;59.80
19389;DHT22;9830;41.876;23.474;2022-07-29T16:34:45;27.60;59.20